Time;durP1;ratioP1;P1;durP2;ratioP2;P2;SDS_P1;SDS_P2;PMS_P1;PMS_P2;Temp;Humidity;BMP_temperature;BMP_pressure;BME280_temperature;BME280_humidity;BME280_pressure;Samples;Min_cycle;Max_cycle;Signal;HPM_P1;HPM_P2
2023/10/18 00:01:23;;;;;;;20.93;17.30;;;;;;;6.75;81.55;95168.47;4943384;29;20192;-79
2023/10/18 00:03:48;;;;;;;21.30;17.37;;;;;;;6.75;81.65;95167.66;4959964;28;20209;-77
2023/10/18 00:06:16;;;;;;;25.60;18.20;;;;;;;6.72;81.78;95167.94;4922341;29;20712;-79
2023/10/18 00:08:44;;;;;;;23.70;18.93;;;;;;;6.73;81.42;95164.41;4936978;29;20550;-79
2023/10/18 00:11:10;;;;;;;21.10;17.70;;;;;;;6.62;81.84;95162.75;4930927;29;20236;-78
2023/10/18 00:13:35;;;;;;;23.73;17.70;;;;;;;6.68;81.51;95171.72;4952877;29;20205;-78
2023/10/18 00:16:05;;;;;;;21.73;18.47;;;;;;;6.69;81.67;95171.59;4943666;29;20204;-79
2023/10/18 00:18:30;;;;;;;22.80;17.93;;;;;;;6.64;81.44;95171.19;4942796;29;20216;-79
2023/10/18 00:21:03;;;;;;;22.17;18.67;;;;;;;6.63;81.48;95166.97;4948645;28;20189;-79
2023/10/18 00:23:31;;;;;;;23.00;18.27;;;;;;;6.59;81.92;95164.78;4950325;29;20196;-78
2023/10/18 00:25:57;;;;;;;24.23;18.90;;;;;;;6.50;81.97;95162.03;4937201;29;20190;-78
2023/10/18 00:28:22;;;;;;;22.00;17.90;;;;;;;6.50;81.69;95164.63;4955448;28;20222;-77
2023/10/18 00:30:49;;;;;;;23.73;17.80;;;;;;;6.47;81.94;95159.75;4963656;28;20173;-77
2023/10/18 00:33:17;;;;;;;21.53;17.97;;;;;;;6.46;82.08;95158.09;4953954;28;20178;-77
2023/10/18 00:35:42;;;;;;;24.83;18.23;;;;;;;6.42;82.10;95158.50;4959657;28;20162;-76
2023/10/18 00:38:10;;;;;;;25.33;18.67;;;;;;;6.41;82.07;95149.94;4966656;28;20265;-78
2023/10/18 00:40:39;;;;;;;23.23;17.10;;;;;;;6.39;81.79;95157.00;4947330;28;20178;-76
2023/10/18 00:43:22;;;;;;;24.77;18.23;;;;;;;6.41;82.04;95149.94;4971809;28;20201;-75
2023/10/18 00:45:50;;;;;;;26.35;18.60;;;;;;;6.33;82.27;95151.53;4951282;28;20173;-76
2023/10/18 00:48:17;;;;;;;25.63;18.97;;;;;;;6.34;82.05;95146.25;4968797;28;20201;-76
2023/10/18 00:50:43;;;;;;;20.47;17.13;;;;;;;6.35;82.17;95153.03;4946467;28;20183;-78
2023/10/18 00:53:10;;;;;;;23.13;17.57;;;;;;;6.29;82.01;95138.09;4938840;29;20226;-79
2023/10/18 00:55:36;;;;;;;24.83;18.83;;;;;;;6.21;82.35;95137.94;4950207;29;20324;-78
2023/10/18 00:58:08;;;;;;;24.77;18.17;;;;;;;6.19;82.13;95129.53;4932128;29;20287;-78
2023/10/18 01:00:35;;;;;;;20.60;17.80;;;;;;;6.14;82.39;95122.16;4939470;29;20691;-78
2023/10/18 01:03:06;;;;;;;20.73;17.37;;;;;;;6.14;82.68;95122.16;4928826;29;20241;-77
2023/10/18 01:05:31;;;;;;;22.20;17.63;;;;;;;6.15;82.11;95123.81;4923385;29;20200;-78
2023/10/18 01:07:58;;;;;;;23.90;18.07;;;;;;;6.09;82.85;95121.75;4940954;28;20277;-78
2023/10/18 01:10:24;;;;;;;22.60;17.43;;;;;;;6.14;82.20;95118.78;4926683;29;20240;-77
2023/10/18 01:12:52;;;;;;;23.13;18.40;;;;;;;6.02;82.94;95112.09;4942107;28;20232;-79
2023/10/18 01:15:19;;;;;;;23.40;18.47;;;;;;;6.06;83.30;95108.31;4923128;29;20192;-78
2023/10/18 01:17:45;;;;;;;24.60;18.77;;;;;;;6.02;83.29;95109.53;4936295;29;20616;-79
2023/10/18 01:22:55;;;;;;;23.17;19.67;;;;;;;6.07;83.36;95099.63;4943263;29;20216;-79
2023/10/18 01:25:20;;;;;;;25.37;19.23;;;;;;;6.14;83.38;95098.16;4939334;28;20664;-77
2023/10/18 01:27:45;;;;;;;25.23;19.03;;;;;;;5.98;84.38;95093.50;4936467;28;20277;-79
2023/10/18 01:30:15;;;;;;;25.10;19.63;;;;;;;6.13;83.43;95086.22;4935329;29;20221;-78
2023/10/18 01:32:40;;;;;;;23.50;18.73;;;;;;;6.16;83.48;95096.25;4947670;28;20196;-77
2023/10/18 01:35:06;;;;;;;22.97;18.87;;;;;;;6.21;83.23;95079.47;4926932;29;20630;-79
2023/10/18 01:37:31;;;;;;;26.60;18.77;;;;;;;6.21;83.12;95082.03;4940616;29;20237;-77
2023/10/18 01:40:06;;;;;;;22.93;18.77;;;;;;;6.23;82.79;95071.59;4940621;29;20197;-76
2023/10/18 01:42:37;;;;;;;23.20;18.00;;;;;;;6.14;83.46;95069.78;4935752;29;20221;-77
2023/10/18 01:45:03;;;;;;;22.13;17.67;;;;;;;6.26;83.30;95079.03;4934314;29;20239;-77
2023/10/18 01:47:31;;;;;;;24.03;18.83;;;;;;;6.22;83.66;95077.69;4947558;29;20224;-77
2023/10/18 01:49:57;;;;;;;22.97;18.23;;;;;;;6.21;83.63;95081.22;4948950;29;20201;-78
2023/10/18 01:52:22;;;;;;;25.50;20.17;;;;;;;6.31;83.42;95076.09;4947482;29;20208;-80
2023/10/18 01:54:48;;;;;;;29.60;19.33;;;;;;;6.35;83.06;95082.59;4940422;28;20189;-79
2023/10/18 01:57:13;;;;;;;23.87;18.80;;;;;;;6.27;83.58;95072.94;4923969;29;20213;-79
2023/10/18 01:59:39;;;;;;;23.67;18.67;;;;;;;6.30;84.00;95069.28;4942647;29;20190;-78
2023/10/18 02:02:10;;;;;;;25.20;19.17;;;;;;;6.39;82.99;95071.88;4931018;29;20220;-80
2023/10/18 02:04:40;;;;;;;23.23;19.13;;;;;;;6.41;83.12;95072.56;4933801;29;20193;-80
2023/10/18 02:07:07;;;;;;;24.60;18.07;;;;;;;6.47;82.53;95072.03;4941513;29;20221;-80
2023/10/18 02:09:36;;;;;;;21.60;17.47;;;;;;;6.52;82.57;95064.69;4933545;29;20608;-79
2023/10/18 02:12:05;;;;;;;25.53;19.07;;;;;;;6.40;83.25;95059.81;4927222;29;20225;-79
2023/10/18 02:14:33;;;;;;;25.30;19.97;;;;;;;6.56;82.51;95059.28;4926172;29;20186;-80
2023/10/18 02:17:09;;;;;;;22.57;17.77;;;;;;;6.53;82.22;95057.75;4922745;29;20654;-79
2023/10/18 02:19:36;;;;;;;24.20;18.43;;;;;;;6.57;82.47;95063.50;4939488;29;20668;-78
2023/10/18 02:22:02;;;;;;;24.27;18.10;;;;;;;6.52;82.06;95064.69;4937118;29;20240;-79
2023/10/18 02:24:27;;;;;;;23.53;18.13;;;;;;;6.55;82.05;95060.25;4927308;29;20702;-79
2023/10/18 02:27:02;;;;;;;24.07;18.27;;;;;;;6.73;81.21;95063.78;4923349;29;20222;-79
2023/10/18 02:29:28;;;;;;;22.73;17.27;;;;;;;6.74;80.95;95066.22;4935719;29;20267;-78
2023/10/18 02:31:57;;;;;;;22.60;18.10;;;;;;;6.66;80.81;95054.94;4959672;28;20282;-78
2023/10/18 02:34:25;;;;;;;22.03;17.67;;;;;;;6.70;80.42;95051.13;4929339;29;20694;-78
2023/10/18 02:36:52;;;;;;;22.67;17.50;;;;;;;6.59;80.70;95059.00;4937702;29;20705;-78
2023/10/18 02:39:27;;;;;;;23.70;17.73;;;;;;;6.66;81.11;95052.34;4932210;29;20656;-80
2023/10/18 02:41:54;;;;;;;25.10;17.83;;;;;;;6.53;81.84;95053.41;4933506;29;20655;-80
2023/10/18 02:44:22;;;;;;;24.67;18.13;;;;;;;6.53;81.36;95056.00;4942100;29;20647;-80
2023/10/18 02:47:16;;;;;;;25.03;18.77;;;;;;;6.65;81.27;95051.53;4931124;29;20226;-79
2023/10/18 02:49:45;;;;;;;23.07;18.53;;;;;;;6.56;81.49;95051.53;4945966;29;20216;-78
2023/10/18 02:52:11;;;;;;;23.87;17.47;;;;;;;6.67;81.40;95048.81;4925062;29;20198;-78
2023/10/18 02:54:36;;;;;;;23.43;17.03;;;;;;;6.74;80.91;95031.84;4936353;29;20186;-79
2023/10/18 02:57:05;;;;;;;25.47;18.27;;;;;;;6.74;80.53;95031.84;4958985;28;20228;-78
2023/10/18 02:59:31;;;;;;;23.17;17.73;;;;;;;6.80;80.39;95020.97;4934187;29;20658;-79
2023/10/18 03:01:57;;;;;;;25.50;17.63;;;;;;;6.74;80.37;95019.75;4926052;29;20712;-78
2023/10/18 03:04:29;;;;;;;20.97;17.40;;;;;;;6.82;79.90;95021.66;4931570;29;20198;-78
2023/10/18 03:06:55;;;;;;;20.40;17.00;;;;;;;6.73;80.48;95020.72;4938251;29;20230;-78
2023/10/18 03:09:27;;;;;;;23.47;17.23;;;;;;;6.88;79.93;95022.84;4932950;29;20272;-79
2023/10/18 03:11:54;;;;;;;21.47;16.43;;;;;;;6.87;79.72;95014.31;4937085;29;20200;-79
2023/10/18 03:14:26;;;;;;;22.63;17.20;;;;;;;6.94;79.32;95023.13;4949642;28;20237;-81
2023/10/18 03:16:55;;;;;;;23.03;16.63;;;;;;;6.91;79.59;95009.69;4937457;29;20221;-80
2023/10/18 03:19:22;;;;;;;19.67;16.33;;;;;;;6.93;79.25;95011.19;4945959;28;20292;-79
2023/10/18 03:21:50;;;;;;;23.20;18.10;;;;;;;6.87;78.97;95014.31;4950961;29;20244;-80
2023/10/18 03:24:19;;;;;;;20.83;16.03;;;;;;;6.87;79.29;95009.16;4949562;29;20193;-79
2023/10/18 03:26:44;;;;;;;21.10;16.20;;;;;;;6.89;79.32;95007.25;4936321;29;20618;-78
2023/10/18 03:29:15;;;;;;;22.43;16.23;;;;;;;6.81;79.26;95004.56;4928275;29;20336;-77
2023/10/18 03:31:41;;;;;;;18.57;15.07;;;;;;;6.84;79.28;95012.00;4945350;28;20229;-77
2023/10/18 03:34:41;;;;;;;20.03;15.67;;;;;;;6.84;79.18;95003.47;4946303;29;20213;-77
2023/10/18 03:36:59;;;;;;;19.53;14.97;;;;;;;6.88;78.50;94992.69;4944345;29;20220;-79
2023/10/18 03:39:25;;;;;;;19.10;15.00;;;;;;;6.85;79.38;94989.59;4935677;29;20189;-78
2023/10/18 03:41:50;;;;;;;20.93;15.83;;;;;;;6.91;78.66;94995.03;4933589;29;20193;-78
2023/10/18 03:44:21;;;;;;;18.00;13.73;;;;;;;6.92;78.75;94993.25;4930837;29;20193;-80
2023/10/18 03:46:49;;;;;;;18.27;13.90;;;;;;;6.85;79.18;94994.75;4930798;29;20305;-80
2023/10/18 03:51:55;;;;;;;18.10;14.90;;;;;;;6.92;78.79;94986.31;4941417;29;20321;-79
2023/10/18 03:54:23;;;;;;;18.37;14.50;;;;;;;6.84;79.12;94986.19;4927575;29;20228;-78
2023/10/18 03:56:51;;;;;;;21.73;15.13;;;;;;;6.96;78.41;94974.75;4948453;29;20271;-79
2023/10/18 03:59:21;;;;;;;19.90;15.37;;;;;;;6.94;79.19;94970.69;4947713;29;20245;-78
2023/10/18 04:02:07;;;;;;;19.20;15.10;;;;;;;6.95;78.92;94973.13;4945404;28;20193;-80
2023/10/18 04:04:36;;;;;;;17.83;14.93;;;;;;;6.90;78.53;94964.19;4944386;29;20217;-80
2023/10/18 04:07:19;;;;;;;19.37;15.63;;;;;;;6.93;78.83;94956.97;4939625;29;20229;-77
2023/10/18 04:12:25;;;;;;;18.03;15.70;;;;;;;6.97;78.72;94958.31;4944731;29;20198;-79
2023/10/18 04:14:58;;;;;;;22.80;16.33;;;;;;;6.99;78.73;94955.63;4934541;29;20257;-79
2023/10/18 04:17:37;;;;;;;21.83;15.83;;;;;;;6.91;79.15;94952.91;4921878;29;20229;-79
2023/10/18 04:20:22;;;;;;;18.83;15.30;;;;;;;6.82;79.34;94952.78;4939276;29;20196;-79
2023/10/18 04:22:47;;;;;;;21.93;17.47;;;;;;;6.80;79.62;94959.88;4947384;29;20195;-79
2023/10/18 04:25:31;;;;;;;20.47;15.27;;;;;;;6.76;79.67;94962.84;4929927;29;20189;-79
2023/10/18 04:27:57;;;;;;;19.77;15.77;;;;;;;6.84;79.36;94957.00;4938615;29;20533;-79
2023/10/18 04:30:23;;;;;;;22.10;15.47;;;;;;;6.83;79.16;94948.44;4933938;29;20204;-79
2023/10/18 04:32:58;;;;;;;21.27;16.07;;;;;;;6.84;79.09;94944.91;4933001;29;20668;-80
2023/10/18 04:35:25;;;;;;;17.83;15.03;;;;;;;6.91;78.68;94943.41;4926612;29;20196;-80
2023/10/18 04:37:53;;;;;;;20.90;16.07;;;;;;;6.98;78.72;94941.91;4927254;29;20205;-79
2023/10/18 04:40:28;;;;;;;22.93;16.13;;;;;;;6.94;78.85;94930.22;4943629;29;20189;-79
2023/10/18 04:42:54;;;;;;;19.83;15.33;;;;;;;6.92;78.74;94926.97;4933266;29;20193;-79
2023/10/18 04:45:23;;;;;;;19.67;15.80;;;;;;;6.94;78.48;94932.78;4934875;29;20189;-78
2023/10/18 04:47:57;;;;;;;19.80;14.57;;;;;;;6.94;78.85;94924.22;4933638;29;20226;-79
2023/10/18 04:50:29;;;;;;;18.83;15.53;;;;;;;6.90;78.94;94920.31;4930405;29;20723;-79
2023/10/18 04:52:58;;;;;;;20.67;15.23;;;;;;;6.80;79.33;94921.16;4937039;28;20186;-79
2023/10/18 04:55:25;;;;;;;19.90;15.57;;;;;;;6.82;78.95;94921.81;4943001;29;20194;-80
2023/10/18 04:57:53;;;;;;;21.53;16.20;;;;;;;6.80;79.09;94922.91;4926870;29;20604;-82
2023/10/18 05:00:34;;;;;;;20.60;16.10;;;;;;;6.74;79.47;94920.91;4944807;28;20570;-84
2023/10/18 05:03:06;;;;;;;20.10;16.43;;;;;;;6.75;79.58;94925.91;4937826;29;20201;-82
2023/10/18 05:05:32;;;;;;;20.57;15.50;;;;;;;6.55;80.67;94928.69;4944063;29;20189;-83
2023/10/18 05:07:59;;;;;;;21.37;16.03;;;;;;;6.65;80.96;94919.97;4926653;29;20244;-83
2023/10/18 05:10:28;;;;;;;22.13;16.60;;;;;;;6.71;80.56;94927.13;4933385;29;20232;-84
2023/10/18 05:12:53;;;;;;;20.93;16.37;;;;;;;6.80;79.93;94920.31;4939824;29;20228;-85
2023/10/18 05:15:29;;;;;;;20.93;16.53;;;;;;;6.79;80.14;94922.09;4935173;29;20201;-84
2023/10/18 05:18:04;;;;;;;19.90;16.27;;;;;;;6.80;80.21;94917.72;4933945;29;20232;-83
2023/10/18 05:23:19;;;;;;;19.83;15.17;;;;;;;6.80;79.81;94916.00;4943835;29;20243;-83
2023/10/18 05:25:47;;;;;;;21.63;15.57;;;;;;;6.84;80.02;94916.53;4959563;28;20200;-83
2023/10/18 05:28:16;;;;;;;18.57;14.93;;;;;;;6.80;80.16;94920.31;4923737;29;20594;-82
2023/10/18 05:41:45;;;;;;;17.10;14.60;;;;;;;6.82;80.53;94906.34;4940903;28;20190;-84
2023/10/18 05:44:12;;;;;;;19.60;15.17;;;;;;;6.91;80.22;94898.72;4935205;29;20198;-80
2023/10/18 05:46:39;;;;;;;20.30;14.70;;;;;;;6.98;79.65;94897.16;4945294;29;20209;-80
2023/10/18 05:49:13;;;;;;;17.43;14.80;;;;;;;6.96;80.02;94897.31;4946949;29;20326;-81
2023/10/18 05:51:39;;;;;;;20.17;15.37;;;;;;;6.99;79.81;94894.47;4923213;29;20531;-81
2023/10/18 05:54:08;;;;;;;19.37;14.73;;;;;;;7.04;79.21;94897.44;4937329;29;20664;-81
2023/10/18 05:56:34;;;;;;;17.10;13.90;;;;;;;7.15;78.80;94887.88;4944737;28;20205;-80
2023/10/18 05:59:48;;;;;;;20.20;14.60;;;;;;;7.16;78.86;94882.59;4945318;29;20648;-82
2023/10/18 06:01:58;;;;;;;16.20;13.37;;;;;;;7.27;78.43;94884.16;4938429;29;20621;-81
2023/10/18 06:04:24;;;;;;;18.30;14.30;;;;;;;7.22;78.49;94887.16;4918058;29;20182;-80
2023/10/18 06:06:57;;;;;;;19.30;14.40;;;;;;;7.28;78.49;94878.84;4932781;29;20220;-81
2023/10/18 06:09:26;;;;;;;19.47;13.80;;;;;;;7.29;78.54;94879.66;4948708;29;20186;-84
2023/10/18 06:11:52;;;;;;;18.87;14.33;;;;;;;7.24;78.44;94874.09;4948948;29;20239;-83
2023/10/18 06:14:18;;;;;;;16.17;13.87;;;;;;;7.30;78.50;94878.69;4923471;29;20536;-84
2023/10/18 06:16:51;;;;;;;16.43;13.20;;;;;;;7.44;77.65;94870.47;4927733;29;20229;-84
2023/10/18 06:19:45;;;;;;;16.60;13.30;;;;;;;7.56;77.20;94869.31;4943048;29;20196;-85
2023/10/18 06:23:07;;;;;;;15.70;12.97;;;;;;;7.51;77.30;94870.69;4949851;29;20229;-87
2023/10/18 06:25:49;;;;;;;17.17;12.33;;;;;;;7.60;76.55;94870.66;4911329;29;20262;-86
2023/10/18 06:28:26;;;;;;;16.30;11.80;;;;;;;7.60;76.48;94865.50;4899939;29;20319;-85
2023/10/18 06:31:39;;;;;;;16.00;12.03;;;;;;;7.77;75.93;94870.78;4892078;29;20191;-84
2023/10/18 06:34:22;;;;;;;16.60;11.60;;;;;;;7.89;75.35;94874.81;4908531;29;20195;-84
2023/10/18 06:36:56;;;;;;;16.37;11.90;;;;;;;7.87;75.13;94871.56;4896299;29;20701;-84
2023/10/18 06:39:37;;;;;;;16.10;11.40;;;;;;;7.85;74.96;94868.28;4917310;29;20395;-87
2023/10/18 06:42:12;;;;;;;14.33;10.70;;;;;;;8.04;74.42;94868.16;4898711;29;20203;-82
2023/10/18 06:44:38;;;;;;;13.13;11.27;;;;;;;8.11;74.19;94866.59;4896118;29;20190;-80
2023/10/18 06:47:06;;;;;;;14.33;11.20;;;;;;;8.07;73.81;94854.94;4892084;29;20229;-80
2023/10/18 06:49:31;;;;;;;14.43;10.83;;;;;;;8.15;73.85;94857.59;4896597;29;20211;-81
2023/10/18 06:51:57;;;;;;;14.93;11.20;;;;;;;8.15;73.30;94857.59;4907969;29;20191;-77
2023/10/18 06:54:31;;;;;;;16.50;11.53;;;;;;;8.17;73.45;94857.44;4898275;29;20202;-78
2023/10/18 06:56:57;;;;;;;13.23;10.47;;;;;;;8.28;73.15;94852.00;4905241;29;20699;-78
2023/10/18 06:59:27;;;;;;;13.83;11.43;;;;;;;8.27;72.83;94850.38;4906402;29;20254;-79
2023/10/18 07:01:58;;;;;;;12.80;11.00;;;;;;;8.39;72.41;94848.38;4938606;28;20209;-78
2023/10/18 07:04:35;;;;;;;12.43;10.23;;;;;;;8.50;72.11;94843.00;4935904;29;20181;-78
2023/10/18 07:07:01;;;;;;;12.30;10.83;;;;;;;8.54;71.66;94843.50;4932674;29;20589;-78
2023/10/18 07:09:27;;;;;;;12.20;10.13;;;;;;;8.60;71.34;94840.31;4947968;28;20552;-77
2023/10/18 07:11:57;;;;;;;11.47;10.27;;;;;;;8.67;70.75;94839.53;4954047;29;20194;-77
2023/10/18 07:14:24;;;;;;;14.90;10.53;;;;;;;8.66;70.76;94826.75;4950299;29;20213;-79
2023/10/18 07:16:54;;;;;;;11.53;10.13;;;;;;;8.74;70.11;94830.16;4926689;29;20213;-78
2023/10/18 07:19:26;;;;;;;12.73;10.67;;;;;;;8.77;69.75;94822.13;4943621;29;20182;-79
2023/10/18 07:21:52;;;;;;;13.50;10.37;;;;;;;8.97;69.26;94824.47;4936765;29;20189;-79
2023/10/18 07:24:18;;;;;;;13.90;10.77;;;;;;;9.06;68.75;94823.53;4946219;29;20196;-79
2023/10/18 07:26:46;;;;;;;13.07;10.00;;;;;;;9.18;68.26;94817.09;4933427;29;20217;-79
2023/10/18 07:29:13;;;;;;;13.33;9.93;;;;;;;9.26;68.01;94819.72;4937195;29;20285;-80
2023/10/18 07:31:38;;;;;;;13.67;10.47;;;;;;;9.24;67.80;94824.25;4927928;29;20193;-80
2023/10/18 07:34:17;;;;;;;13.77;10.63;;;;;;;9.29;67.93;94832.38;4941430;29;20189;-80
2023/10/18 07:36:44;;;;;;;14.17;10.60;;;;;;;9.16;67.96;94834.59;4941855;28;20281;-79
2023/10/18 07:39:11;;;;;;;13.77;10.10;;;;;;;9.13;67.33;94841.88;4927051;29;20213;-80
2023/10/18 07:41:37;;;;;;;15.00;9.33;;;;;;;9.35;66.93;94839.50;4935674;29;20545;-80
2023/10/18 07:44:05;;;;;;;11.37;9.63;;;;;;;9.61;66.43;94831.63;4931333;29;20198;-80
2023/10/18 07:46:39;;;;;;;10.73;8.90;;;;;;;9.63;66.03;94834.09;4944114;29;20606;-79
2023/10/18 07:49:15;;;;;;;11.43;8.93;;;;;;;9.67;65.74;94835.38;4946906;28;20662;-79
2023/10/18 07:51:55;;;;;;;13.13;9.07;;;;;;;9.73;64.92;94833.94;4937892;29;20540;-79
2023/10/18 07:54:21;;;;;;;12.00;9.27;;;;;;;9.80;64.58;94822.75;4935659;29;20181;-79
2023/10/18 07:56:49;;;;;;;10.13;8.50;;;;;;;10.04;62.98;94818.56;4944723;29;20348;-78
2023/10/18 07:59:30;;;;;;;11.43;7.90;;;;;;;10.17;62.79;94814.53;4942793;29;20582;-78
2023/10/18 08:04:42;;;;;;;9.70;7.50;;;;;;;10.29;62.01;94817.63;4936052;29;20208;-78
2023/10/18 08:07:15;;;;;;;11.67;7.53;;;;;;;10.50;61.30;94820.50;4921611;29;20229;-79
2023/10/18 08:09:43;;;;;;;10.87;7.10;;;;;;;10.55;60.80;94817.44;4933992;29;20204;-78
2023/10/18 08:14:50;;;;;;;10.90;6.43;;;;;;;10.56;60.22;94813.03;4942573;29;20193;-78
2023/10/18 08:17:33;;;;;;;7.90;6.40;;;;;;;10.58;60.31;94798.09;4934903;29;20205;-78
2023/10/18 08:22:47;;;;;;;7.30;6.07;;;;;;;10.66;59.45;94792.91;4944173;29;20738;-78
2023/10/18 08:25:21;;;;;;;7.40;5.57;;;;;;;10.71;59.15;94791.44;4943252;29;20954;-78
2023/10/18 08:27:53;;;;;;;8.57;5.30;;;;;;;10.82;59.00;94790.25;4932349;29;20224;-78
2023/10/18 08:33:07;;;;;;;7.17;5.30;;;;;;;10.92;58.59;94801.25;4940562;29;20282;-78
2023/10/18 08:35:33;;;;;;;6.30;5.50;;;;;;;10.97;58.62;94792.97;4941326;28;20433;-80
2023/10/18 08:38:01;;;;;;;6.87;5.47;;;;;;;11.06;58.34;94790.19;4922485;29;20210;-78
2023/10/18 08:43:12;;;;;;;6.77;5.27;;;;;;;11.22;58.46;94785.88;4935578;29;20201;-79
2023/10/18 08:45:45;;;;;;;6.47;5.57;;;;;;;11.43;57.45;94775.69;4940233;29;20232;-78
2023/10/18 08:48:15;;;;;;;6.13;5.20;;;;;;;11.46;57.52;94766.75;4933043;29;20232;-79
2023/10/18 08:50:42;;;;;;;5.77;4.80;;;;;;;11.70;57.07;94770.97;4933053;29;20200;-78
2023/10/18 08:53:07;;;;;;;9.27;4.63;;;;;;;11.69;57.47;94764.97;4919711;29;20194;-79
2023/10/18 08:55:45;;;;;;;5.33;4.70;;;;;;;11.71;56.86;94762.19;4931090;29;20348;-79
2023/10/18 08:58:20;;;;;;;8.43;4.93;;;;;;;11.92;57.16;94764.97;4931958;29;20364;-78
2023/10/18 09:03:29;;;;;;;5.73;4.20;;;;;;;12.06;55.95;94761.63;4939022;29;20272;-78
2023/10/18 09:06:04;;;;;;;4.77;4.27;;;;;;;12.15;55.34;94770.16;4938791;29;20201;-80
2023/10/18 09:08:41;;;;;;;5.90;4.90;;;;;;;12.45;54.78;94765.81;4926202;29;20209;-79
2023/10/18 09:11:20;;;;;;;7.17;5.40;;;;;;;12.24;55.25;94770.91;4941361;29;20229;-79
2023/10/18 09:14:07;;;;;;;6.83;6.23;;;;;;;12.47;55.21;94772.50;4934664;29;20232;-79
2023/10/18 09:16:35;;;;;;;6.10;4.97;;;;;;;12.51;55.31;94775.53;4937381;29;20574;-79
2023/10/18 09:19:00;;;;;;;6.60;5.70;;;;;;;12.46;55.41;94765.66;4931603;29;20200;-79
2023/10/18 09:21:32;;;;;;;7.43;5.23;;;;;;;12.37;56.13;94768.53;4940505;29;20197;-79
2023/10/18 09:24:00;;;;;;;7.37;5.60;;;;;;;12.27;55.35;94763.53;4925727;29;20231;-79
2023/10/18 09:26:26;;;;;;;7.37;5.53;;;;;;;12.33;56.01;94772.44;4957269;28;20217;-80
2023/10/18 09:28:55;;;;;;;7.10;5.40;;;;;;;12.10;56.86;94768.13;4934673;29;20200;-79
2023/10/18 09:31:20;;;;;;;5.63;5.13;;;;;;;12.34;56.84;94759.25;4935342;29;20459;-79
2023/10/18 09:33:49;;;;;;;7.33;5.57;;;;;;;12.48;56.63;94750.66;4956009;28;20276;-79
2023/10/18 09:36:23;;;;;;;7.40;5.70;;;;;;;12.50;56.65;94742.66;4927891;29;20189;-79
2023/10/18 09:38:50;;;;;;;6.23;5.43;;;;;;;12.73;55.73;94747.81;4936163;29;20198;-79
2023/10/18 09:41:16;;;;;;;7.13;5.23;;;;;;;12.70;55.10;94743.75;4931700;29;20272;-79
2023/10/18 09:43:42;;;;;;;6.63;4.63;;;;;;;12.65;55.05;94750.50;4936650;29;20693;-79
2023/10/18 09:46:08;;;;;;;7.83;4.60;;;;;;;12.86;54.61;94753.19;4940673;29;20193;-80
2023/10/18 09:48:43;;;;;;;5.60;4.73;;;;;;;12.77;54.74;94749.84;4941143;28;20224;-78
2023/10/18 09:51:11;;;;;;;5.20;4.70;;;;;;;12.94;54.47;94734.84;4944585;28;20209;-79
2023/10/18 09:53:44;;;;;;;5.37;4.53;;;;;;;12.98;54.03;94738.69;4935449;29;20202;-78
2023/10/18 09:56:15;;;;;;;6.27;4.30;;;;;;;13.06;53.89;94743.00;4922229;29;20289;-78
2023/10/18 09:58:43;;;;;;;5.17;3.77;;;;;;;13.03;54.07;94738.97;4940106;29;20651;-79
2023/10/18 10:01:25;;;;;;;7.30;4.37;;;;;;;13.10;53.86;94725.22;4943248;29;20194;-78
2023/10/18 10:03:52;;;;;;;6.33;4.40;;;;;;;13.36;53.33;94722.94;4932487;29;20217;-79
2023/10/18 10:06:27;;;;;;;6.73;3.90;;;;;;;13.40;53.14;94724.16;4949179;28;20237;-79
2023/10/18 10:11:48;;;;;;;7.67;4.50;;;;;;;13.58;53.11;94719.31;4928025;29;20236;-78
2023/10/18 10:14:21;;;;;;;4.20;3.70;;;;;;;13.35;54.10;94725.72;4926367;29;20220;-80
2023/10/18 10:17:07;;;;;;;5.33;4.13;;;;;;;13.57;53.10;94719.53;4940383;29;20202;-79
2023/10/18 10:19:42;;;;;;;5.80;4.00;;;;;;;13.73;53.01;94710.63;4919655;29;20194;-77
2023/10/18 10:22:11;;;;;;;5.77;3.90;;;;;;;13.70;52.71;94704.00;4944391;29;20268;-78
2023/10/18 10:24:43;;;;;;;4.90;4.20;;;;;;;13.82;52.56;94717.34;4928965;29;20285;-78
2023/10/18 10:27:27;;;;;;;6.53;4.33;;;;;;;14.12;51.83;94710.94;4934881;29;20242;-78
2023/10/18 10:29:56;;;;;;;4.50;4.10;;;;;;;14.04;51.53;94708.47;4933504;29;20201;-78
2023/10/18 10:32:27;;;;;;;7.60;3.40;;;;;;;14.14;51.45;94708.19;4942224;29;20260;-78
2023/10/18 10:35:15;;;;;;;6.73;4.10;;;;;;;14.23;51.67;94714.88;4939019;28;20198;-79
2023/10/18 10:38:13;;;;;;;4.53;3.73;;;;;;;14.10;52.08;94710.34;4943414;29;20197;-78
2023/10/18 10:40:48;;;;;;;5.37;3.73;;;;;;;14.08;51.97;94704.50;4943789;29;20206;-79
2023/10/18 10:43:14;;;;;;;5.07;3.67;;;;;;;14.25;52.21;94694.59;4942028;29;20192;-79
2023/10/18 10:48:15;;;;;;;5.67;4.73;;;;;;;14.30;53.64;94694.00;4931189;29;20217;-77
2023/10/18 10:50:42;;;;;;;7.10;5.20;;;;;;;14.49;53.92;94692.53;4949425;28;20191;-78
2023/10/18 10:53:08;;;;;;;7.77;5.37;;;;;;;14.36;54.48;94694.06;4920911;29;20186;-79
2023/10/18 10:55:34;;;;;;;7.17;5.30;;;;;;;14.39;54.40;94691.06;4934272;29;20582;-78
2023/10/18 10:58:15;;;;;;;6.23;5.40;;;;;;;14.45;54.42;94692.13;4928657;29;20224;-78
2023/10/18 11:00:59;;;;;;;7.67;5.47;;;;;;;14.23;54.19;94680.94;4946041;29;20182;-79
2023/10/18 11:03:29;;;;;;;7.00;5.70;;;;;;;14.30;54.40;94675.72;4926222;29;20275;-80
2023/10/18 11:05:58;;;;;;;7.37;6.13;;;;;;;14.16;54.84;94673.03;4936342;29;20190;-79
2023/10/18 11:08:24;;;;;;;6.90;5.63;;;;;;;14.28;54.41;94667.28;4939581;29;20264;-79
2023/10/18 11:10:50;;;;;;;7.13;5.60;;;;;;;14.25;54.57;94663.25;4943389;28;20665;-80
2023/10/18 11:13:15;;;;;;;7.23;5.77;;;;;;;14.16;54.05;94659.19;4943581;29;20197;-79
2023/10/18 11:15:42;;;;;;;7.50;5.67;;;;;;;13.97;54.68;94658.06;4944745;28;20192;-79
2023/10/18 11:18:20;;;;;;;6.97;5.27;;;;;;;14.03;54.41;94649.44;4924992;29;20213;-77
2023/10/18 11:20:51;;;;;;;5.60;5.03;;;;;;;13.92;54.87;94641.34;4937573;29;20181;-80
2023/10/18 11:23:17;;;;;;;5.17;4.50;;;;;;;13.83;55.19;94651.09;4929809;29;20610;-78
2023/10/18 11:25:42;;;;;;;10.13;4.77;;;;;;;13.93;55.06;94637.72;4934717;29;20197;-78
2023/10/18 11:28:19;;;;;;;6.40;5.07;;;;;;;14.01;54.79;94634.97;4937763;29;20222;-78
2023/10/18 11:30:45;;;;;;;5.07;4.50;;;;;;;13.94;55.16;94634.13;4937572;29;20368;-79
2023/10/18 11:33:17;;;;;;;5.40;4.63;;;;;;;13.94;55.26;94623.69;4944371;29;20557;-79
2023/10/18 11:35:48;;;;;;;7.00;4.70;;;;;;;13.71;55.95;94613.50;4943293;29;20233;-79
2023/10/18 11:38:14;;;;;;;5.93;4.67;;;;;;;13.72;55.77;94602.88;4941106;29;20210;-78
2023/10/18 11:40:40;;;;;;;8.03;5.00;;;;;;;13.54;55.78;94599.91;4937624;29;20196;-79
2023/10/18 11:43:07;;;;;;;7.17;4.80;;;;;;;13.84;55.62;94597.91;4944077;29;20192;-79
2023/10/18 11:45:33;;;;;;;7.10;4.73;;;;;;;13.99;55.15;94598.63;4934197;29;20193;-79
2023/10/18 11:48:06;;;;;;;5.27;4.50;;;;;;;14.15;54.57;94597.53;4937614;29;20294;-78
2023/10/18 11:50:48;;;;;;;6.33;4.57;;;;;;;14.28;54.69;94592.34;4954212;29;20252;-79
2023/10/18 11:53:15;;;;;;;8.80;5.03;;;;;;;14.30;54.35;94585.13;4932598;29;20617;-79
2023/10/18 11:55:59;;;;;;;7.37;4.97;;;;;;;14.52;53.91;94587.69;4942504;29;20188;-79
2023/10/18 11:58:26;;;;;;;5.03;4.10;;;;;;;14.62;53.75;94578.47;4940397;29;20217;-79
2023/10/18 12:01:00;;;;;;;5.23;4.50;;;;;;;14.73;53.63;94580.50;4941197;29;20205;-79
2023/10/18 12:03:29;;;;;;;5.60;4.13;;;;;;;14.83;53.40;94576.72;4938145;28;20209;-78
2023/10/18 12:05:55;;;;;;;5.77;3.90;;;;;;;14.97;53.55;94578.38;4946146;28;20221;-78
2023/10/18 12:08:23;;;;;;;11.20;4.80;;;;;;;15.16;53.06;94568.94;4961907;28;20229;-78
2023/10/18 12:10:52;;;;;;;10.27;4.53;;;;;;;15.16;52.85;94568.94;4955521;28;20184;-80
2023/10/18 12:13:20;;;;;;;7.47;4.57;;;;;;;15.17;52.72;94567.94;4956794;28;20177;-78
2023/10/18 12:15:46;;;;;;;5.20;4.70;;;;;;;15.45;52.02;94567.75;4962988;28;20178;-78
2023/10/18 12:18:14;;;;;;;17.20;5.17;;;;;;;15.32;52.48;94560.72;4942015;28;20208;-78
2023/10/18 12:20:45;;;;;;;9.73;4.47;;;;;;;15.43;52.74;94552.25;4947276;29;20276;-79
2023/10/18 12:23:18;;;;;;;9.33;4.43;;;;;;;15.38;52.22;94546.84;4936110;29;20217;-79
2023/10/18 12:25:44;;;;;;;9.60;4.30;;;;;;;15.45;52.53;94531.94;4934119;29;20194;-79
2023/10/18 12:28:15;;;;;;;4.47;4.07;;;;;;;15.41;52.67;94543.81;4937405;29;20219;-81